Pulteney, New York
Current Conditions -  °F | °C
As of 6:53 AM on Friday 24 Oct 2014 (Local Time) from KPEO Reporting Station
Clear Clear  
Wind Chill: 47°   Ceiling: Unl
Heat Index: 47°   Visibility: 10mi
Dew Point: 41°   Wind: 3mph
Humidity: 80%   Direction: 340°NNW
Pressure: 29.97"   Gusts: NA
Location:  42.52°N, 77.17°W
Report Text: KPEO 241053Z AUTO 34003KT 10SM CLR 08/05 A2997 RMK AO2 SLP152 T00830050
Loading
Personal Weather Stations






























Interactive Weather Map
Tropical Storm Tracking
New forecast layout! Learn more

10-Day Weather Forecast

Advertisements
Track Severe Weather on mobile